Time;durP1;ratioP1;P1;durP2;ratioP2;P2;SDS_P1;SDS_P2;PMS_P1;PMS_P2;Temp;Humidity;BMP_temperature;BMP_pressure;BME280_temperature;BME280_humidity;BME280_pressure;Samples;Min_cycle;Max_cycle;Signal;HPM_P1;HPM_P2
2021/12/27 05:00:57;;;;;;;10.50;9.27;;;7.70;99.90;;;;;;5714623;23;21028;-70
2021/12/27 05:03:24;;;;;;;11.57;9.53;;;7.70;99.90;;;;;;4977398;28;20868;-70
2021/12/27 05:05:51;;;;;;;10.20;9.30;;;7.80;99.90;;;;;;4977556;28;20471;-71
2021/12/27 05:08:18;;;;;;;9.90;9.00;;;7.80;99.90;;;;;;4977506;28;20465;-70
2021/12/27 05:10:45;;;;;;;9.73;8.83;;;7.80;99.90;;;;;;4977684;28;20488;-69
2021/12/27 05:13:12;;;;;;;9.50;8.70;;;7.80;99.90;;;;;;4978208;28;20466;-70
2021/12/27 05:15:38;;;;;;;9.70;8.73;;;7.80;99.90;;;;;;4978355;28;20466;-69
2021/12/27 05:18:06;;;;;;;10.60;9.27;;;7.80;99.90;;;;;;4985926;28;20456;-70
2021/12/27 05:20:33;;;;;;;9.60;8.67;;;7.80;99.90;;;;;;4980440;28;20483;-70
2021/12/27 05:23:00;;;;;;;9.40;8.57;;;7.90;99.90;;;;;;4977363;28;20455;-70
2021/12/27 05:25:27;;;;;;;9.43;8.47;;;7.90;99.90;;;;;;4977757;28;20466;-70
2021/12/27 05:27:53;;;;;;;9.47;8.40;;;7.90;99.90;;;;;;4978106;28;20457;-70
2021/12/27 05:30:20;;;;;;;8.30;7.60;;;7.80;99.90;;;;;;4977368;28;20486;-71
2021/12/27 05:32:47;;;;;;;9.33;8.27;;;7.80;99.90;;;;;;4977570;28;20456;-70
2021/12/27 05:35:16;;;;;;;9.00;8.20;;;7.80;99.90;;;;;;4977082;28;21020;-70
2021/12/27 05:37:44;;;;;;;8.77;7.97;;;7.80;99.90;;;;;;4978303;28;20455;-70
2021/12/27 05:40:15;;;;;;;7.60;6.90;;;7.80;99.90;;;;;;4977797;28;20458;-70
2021/12/27 05:42:42;;;;;;;7.83;7.13;;;7.80;99.90;;;;;;4977399;28;20458;-70
2021/12/27 05:45:09;;;;;;;8.30;7.50;;;7.90;99.90;;;;;;4977053;28;20460;-70
2021/12/27 05:47:37;;;;;;;7.83;7.03;;;7.90;99.90;;;;;;4977299;28;20459;-70
2021/12/27 05:50:04;;;;;;;7.07;6.43;;;7.90;99.90;;;;;;4977180;28;20483;-70
2021/12/27 05:52:33;;;;;;;7.53;6.70;;;7.90;99.90;;;;;;4977068;28;20474;-68
2021/12/27 05:54:59;;;;;;;6.70;6.00;;;7.90;99.90;;;;;;4976613;28;20950;-70
2021/12/27 05:57:26;;;;;;;6.57;5.97;;;7.90;99.90;;;;;;4977908;28;20459;-69
2021/12/27 05:59:53;;;;;;;5.43;5.10;;;7.90;99.90;;;;;;4989813;28;20466;-70
2021/12/27 06:02:20;;;;;;;6.30;5.80;;;7.90;99.90;;;;;;4989145;28;20498;-70
2021/12/27 06:04:47;;;;;;;6.17;5.60;;;7.90;99.90;;;;;;4989363;28;20466;-69
2021/12/27 06:07:15;;;;;;;11.73;7.57;;;7.90;99.90;;;;;;4989674;28;20475;-71
2021/12/27 06:09:43;;;;;;;6.57;5.97;;;7.90;99.90;;;;;;4983220;28;20910;-69
2021/12/27 06:12:10;;;;;;;7.13;6.50;;;7.90;99.90;;;;;;4980794;28;20474;-70
2021/12/27 06:14:38;;;;;;;6.23;5.83;;;7.90;99.90;;;;;;4980161;28;20454;-69
2021/12/27 06:17:05;;;;;;;6.43;5.93;;;8.00;99.90;;;;;;4980996;28;20455;-69
2021/12/27 06:19:31;;;;;;;6.67;6.07;;;8.00;99.90;;;;;;4980261;28;20486;-70
2021/12/27 06:21:58;;;;;;;6.33;5.90;;;8.00;99.90;;;;;;4979723;28;20990;-69
2021/12/27 06:24:25;;;;;;;6.87;6.17;;;8.00;99.90;;;;;;4980076;28;20457;-70
2021/12/27 06:26:53;;;;;;;6.50;5.90;;;8.00;99.90;;;;;;4980366;28;20440;-70
2021/12/27 06:29:20;;;;;;;6.00;5.60;;;8.00;99.90;;;;;;4979834;28;20479;-68
2021/12/27 06:31:47;;;;;;;6.20;5.70;;;8.00;99.90;;;;;;4979825;28;20475;-69
2021/12/27 06:34:14;;;;;;;6.83;6.23;;;8.00;99.90;;;;;;4979613;28;20815;-69
2021/12/27 06:36:41;;;;;;;6.93;6.40;;;8.00;99.90;;;;;;4979619;28;20864;-70
2021/12/27 06:39:09;;;;;;;9.40;6.97;;;7.90;99.90;;;;;;4980437;28;20791;-69
2021/12/27 06:41:36;;;;;;;8.30;6.50;;;7.90;99.90;;;;;;4980216;28;20485;-70
2021/12/27 06:44:05;;;;;;;7.60;7.00;;;7.90;99.90;;;;;;4980778;28;20538;-70
2021/12/27 06:46:31;;;;;;;8.40;7.60;;;7.80;99.90;;;;;;4980543;28;20458;-71
2021/12/27 06:48:58;;;;;;;7.50;6.90;;;7.80;99.90;;;;;;4990359;28;20455;-70
2021/12/27 06:51:25;;;;;;;7.80;7.20;;;7.70;99.90;;;;;;4979686;28;20494;-70
2021/12/27 06:53:52;;;;;;;8.17;7.30;;;7.70;99.90;;;;;;4979199;28;20455;-69
2021/12/27 06:56:19;;;;;;;7.20;6.60;;;7.70;99.90;;;;;;4979239;28;20460;-70
2021/12/27 06:58:45;;;;;;;8.43;7.73;;;7.70;99.90;;;;;;4979150;28;20466;-70
2021/12/27 07:01:13;;;;;;;8.83;8.00;;;7.60;99.90;;;;;;4978870;28;20482;-71
2021/12/27 07:03:40;;;;;;;9.13;8.33;;;7.50;99.90;;;;;;4979390;28;20456;-70
2021/12/27 07:06:08;;;;;;;8.13;7.03;;;7.50;99.90;;;;;;4979654;28;20967;-69
2021/12/27 07:08:34;;;;;;;10.13;9.20;;;7.40;99.90;;;;;;4980098;28;20459;-70
2021/12/27 07:11:01;;;;;;;9.93;8.93;;;7.40;99.90;;;;;;4978815;28;20487;-70
2021/12/27 07:13:28;;;;;;;11.13;8.93;;;7.40;99.90;;;;;;4978489;28;20450;-70
2021/12/27 07:15:55;;;;;;;9.80;8.90;;;7.40;99.90;;;;;;4978112;28;20462;-70
2021/12/27 07:18:23;;;;;;;10.20;9.20;;;7.40;99.90;;;;;;4978738;28;20459;-70
2021/12/27 07:20:51;;;;;;;10.50;9.50;;;7.30;99.90;;;;;;4978983;28;20526;-69
2021/12/27 07:23:18;;;;;;;11.10;10.00;;;7.30;99.90;;;;;;4978339;28;20454;-70
2021/12/27 07:25:45;;;;;;;10.20;9.20;;;7.20;99.90;;;;;;4978816;28;20459;-70
2021/12/27 07:28:12;;;;;;;11.07;9.03;;;7.20;99.90;;;;;;4979155;28;20459;-70
2021/12/27 07:30:38;;;;;;;11.67;9.33;;;7.10;99.90;;;;;;4978878;28;20518;-70
2021/12/27 07:33:05;;;;;;;10.73;9.63;;;7.20;99.90;;;;;;4979652;28;20469;-70
2021/12/27 07:35:34;;;;;;;11.20;10.10;;;7.20;99.90;;;;;;4978929;28;20525;-70
2021/12/27 07:38:01;;;;;;;11.30;10.20;;;7.30;99.90;;;;;;4978407;28;20451;-69
2021/12/27 07:40:28;;;;;;;11.03;9.33;;;7.30;99.90;;;;;;4979150;28;20510;-69
2021/12/27 07:42:55;;;;;;;11.30;10.20;;;7.40;99.90;;;;;;4979456;28;20470;-70
2021/12/27 07:45:22;;;;;;;10.13;9.10;;;7.40;99.90;;;;;;4979428;28;20447;-70
2021/12/27 07:47:49;;;;;;;12.30;8.93;;;7.50;99.90;;;;;;4979892;28;20448;-70
2021/12/27 07:50:16;;;;;;;9.53;8.60;;;7.70;99.90;;;;;;4978877;28;20490;-70
2021/12/27 07:52:44;;;;;;;9.40;8.70;;;8.20;99.90;;;;;;4979205;28;20826;-71
2021/12/27 07:55:11;;;;;;;9.23;8.53;;;8.80;99.90;;;;;;4978609;28;20463;-70
2021/12/27 07:57:38;;;;;;;10.87;9.80;;;9.40;99.90;;;;;;4979103;28;20443;-70
2021/12/27 08:00:07;;;;;;;8.10;7.50;;;9.80;99.90;;;;;;4978666;28;20455;-70
2021/12/27 08:02:35;;;;;;;8.27;7.53;;;10.10;99.90;;;;;;4978198;28;20851;-70
2021/12/27 08:05:02;;;;;;;6.90;6.20;;;10.20;99.90;;;;;;4978020;28;20463;-70
2021/12/27 08:07:29;;;;;;;5.70;5.30;;;10.70;99.90;;;;;;4978384;28;20458;-70
2021/12/27 08:09:57;;;;;;;4.70;4.30;;;11.50;99.90;;;;;;4978395;28;20486;-70
2021/12/27 08:12:23;;;;;;;4.80;4.50;;;12.40;99.90;;;;;;4978362;28;20508;-70
2021/12/27 08:14:50;;;;;;;5.90;5.40;;;13.20;99.90;;;;;;4978525;28;20488;-69
2021/12/27 08:17:17;;;;;;;5.13;4.83;;;13.90;99.90;;;;;;4982297;28;20456;-70
2021/12/27 08:19:45;;;;;;;6.10;5.60;;;13.90;99.90;;;;;;4985926;28;20554;-70
2021/12/27 08:22:12;;;;;;;5.90;5.50;;;13.70;99.90;;;;;;4978205;28;20521;-70
2021/12/27 08:24:39;;;;;;;5.40;4.97;;;13.50;99.90;;;;;;4978103;28;20954;-70
2021/12/27 08:27:07;;;;;;;5.00;4.70;;;13.60;99.90;;;;;;4978063;28;20464;-71
2021/12/27 08:29:34;;;;;;;5.30;4.90;;;13.40;99.90;;;;;;4978176;28;20458;-71
2021/12/27 08:32:01;;;;;;;5.67;5.27;;;13.20;99.90;;;;;;4977821;28;20481;-69
2021/12/27 08:34:29;;;;;;;6.27;5.57;;;13.30;99.90;;;;;;4977371;28;20946;-70
2021/12/27 08:36:56;;;;;;;5.67;5.20;;;12.90;99.90;;;;;;4977645;28;20464;-70
2021/12/27 08:39:24;;;;;;;6.63;6.10;;;12.50;99.90;;;;;;4978068;28;20468;-70
2021/12/27 08:41:51;;;;;;;5.43;5.03;;;12.10;99.90;;;;;;4977982;28;20503;-69
2021/12/27 08:44:19;;;;;;;6.03;5.53;;;12.00;99.90;;;;;;4977582;28;20828;-70
2021/12/27 08:46:46;;;;;;;5.50;5.07;;;12.30;99.90;;;;;;4977646;28;20810;-69
2021/12/27 08:49:13;;;;;;;5.60;5.20;;;12.40;99.90;;;;;;4977406;28;21005;-70
2021/12/27 08:51:40;;;;;;;6.23;5.80;;;12.20;99.90;;;;;;4977475;28;21024;-71
2021/12/27 08:54:07;;;;;;;6.50;5.90;;;11.90;99.90;;;;;;4977554;28;20484;-69
2021/12/27 08:56:34;;;;;;;5.27;4.87;;;11.80;99.90;;;;;;4977369;28;20460;-69
2021/12/27 08:59:01;;;;;;;5.50;5.17;;;12.30;99.90;;;;;;4978458;28;20492;-71
2021/12/27 09:01:29;;;;;;;4.80;4.50;;;13.50;99.90;;;;;;4977100;28;20491;-69
2021/12/27 09:03:56;;;;;;;4.43;4.13;;;14.60;99.90;;;;;;4977108;28;20459;-68
2021/12/27 09:06:23;;;;;;;6.00;5.47;;;15.70;99.90;;;;;;4977721;28;20457;-69
2021/12/27 09:08:50;;;;;;;5.50;5.10;;;16.50;99.90;;;;;;4977428;28;20443;-70
2021/12/27 09:11:16;;;;;;;6.00;4.70;;;16.40;99.90;;;;;;4976806;28;20485;-70
2021/12/27 09:13:43;;;;;;;6.10;5.60;;;15.80;99.90;;;;;;4977254;28;20519;-69
2021/12/27 09:16:10;;;;;;;5.80;5.40;;;14.90;99.90;;;;;;4977354;28;20458;-71
2021/12/27 09:18:38;;;;;;;5.50;5.20;;;14.20;99.90;;;;;;4977329;28;20468;-71
2021/12/27 09:21:06;;;;;;;6.60;5.90;;;13.60;99.90;;;;;;4977043;28;20471;-70
2021/12/27 09:23:33;;;;;;;5.70;5.20;;;13.10;99.90;;;;;;4977521;28;20512;-70
2021/12/27 09:26:00;;;;;;;5.57;5.13;;;12.60;99.90;;;;;;4976949;28;20474;-70
2021/12/27 09:28:27;;;;;;;5.97;5.57;;;12.20;99.90;;;;;;4977143;28;20461;-70
2021/12/27 09:30:54;;;;;;;5.83;5.33;;;11.80;99.90;;;;;;4976912;28;20990;-71
2021/12/27 09:33:22;;;;;;;5.83;5.27;;;11.60;99.90;;;;;;4977492;28;20467;-70
2021/12/27 09:35:50;;;;;;;5.40;4.90;;;11.30;99.90;;;;;;4977007;28;20463;-70
2021/12/27 09:38:17;;;;;;;5.73;5.23;;;11.00;99.90;;;;;;4977080;28;20464;-69
2021/12/27 09:40:44;;;;;;;5.10;4.73;;;11.00;99.90;;;;;;4976428;28;20499;-70
2021/12/27 09:43:11;;;;;;;4.50;4.20;;;10.90;99.90;;;;;;4977003;28;20481;-71
2021/12/27 09:45:38;;;;;;;4.40;4.07;;;10.80;99.90;;;;;;4978795;28;20469;-70
2021/12/27 09:48:06;;;;;;;4.17;3.97;;;10.80;99.90;;;;;;4981227;28;20768;-71
2021/12/27 09:50:36;;;;;;;4.83;4.50;;;10.90;99.90;;;;;;4995877;28;20493;-70
2021/12/27 09:53:04;;;;;;;4.43;4.13;;;10.80;99.90;;;;;;4980812;28;20460;-70
2021/12/27 09:55:31;;;;;;;4.43;4.13;;;10.70;99.90;;;;;;4980767;28;20443;-72
2021/12/27 09:57:59;;;;;;;5.03;4.63;;;10.70;99.90;;;;;;4980899;28;20978;-71
2021/12/27 10:00:26;;;;;;;5.33;4.83;;;10.80;99.90;;;;;;4981275;28;20459;-71
2021/12/27 10:02:57;;;;;;;4.90;4.60;;;11.00;99.90;;;;;;4981145;28;20444;-72
2021/12/27 10:05:27;;;;;;;4.20;3.90;;;11.00;99.90;;;;;;4980399;28;20449;-72
2021/12/27 10:07:54;;;;;;;5.00;4.60;;;11.20;99.90;;;;;;4980862;28;20450;-73
2021/12/27 10:10:23;;;;;;;5.20;4.70;;;11.20;99.90;;;;;;4980769;28;20483;-72
2021/12/27 10:12:51;;;;;;;4.00;3.73;;;11.20;99.90;;;;;;4980504;28;20461;-73
2021/12/27 10:15:20;;;;;;;3.67;3.10;;;11.20;99.90;;;;;;4981018;28;20432;-74
2021/12/27 10:17:48;;;;;;;4.53;4.13;;;11.10;99.90;;;;;;4980670;28;20473;-73
2021/12/27 10:20:17;;;;;;;4.30;3.97;;;11.10;99.90;;;;;;4980617;28;20451;-72
2021/12/27 10:22:46;;;;;;;4.23;3.83;;;11.20;99.90;;;;;;4981096;28;20455;-74
2021/12/27 10:25:17;;;;;;;3.80;3.50;;;11.30;99.90;;;;;;4980753;28;20457;-74
2021/12/27 10:27:46;;;;;;;5.47;3.50;;;11.50;99.90;;;;;;4980192;28;20443;-74
2021/12/27 10:30:16;;;;;;;3.50;3.30;;;11.60;99.90;;;;;;4979760;28;20970;-71
2021/12/27 10:32:43;;;;;;;4.10;3.70;;;11.50;99.90;;;;;;4980997;28;20464;-72
2021/12/27 10:35:12;;;;;;;6.63;3.53;;;11.30;99.90;;;;;;4979854;28;20492;-71
2021/12/27 10:37:41;;;;;;;4.60;3.47;;;11.50;99.90;;;;;;4980510;28;20460;-72
2021/12/27 10:40:10;;;;;;;4.53;4.23;;;11.90;99.90;;;;;;4981191;28;20490;-71
2021/12/27 10:42:40;;;;;;;3.53;3.23;;;12.50;99.90;;;;;;4980547;28;20486;-72
2021/12/27 10:45:11;;;;;;;3.80;3.60;;;13.40;99.90;;;;;;4980962;28;20469;-71
2021/12/27 10:47:40;;;;;;;3.33;3.13;;;14.50;99.90;;;;;;4980834;28;20470;-71
2021/12/27 10:50:17;;;;;;;3.63;3.33;;;15.10;99.90;;;;;;4980119;28;20462;-70
2021/12/27 10:52:53;;;;;;;3.70;3.40;;;15.60;99.90;;;;;;4980348;28;20448;-69
2021/12/27 10:55:23;;;;;;;4.07;3.77;;;15.30;99.90;;;;;;4979528;28;20443;-70
2021/12/27 10:57:51;;;;;;;3.60;3.40;;;14.90;99.90;;;;;;4979539;28;20447;-69
2021/12/27 11:00:29;;;;;;;3.60;3.20;;;14.40;99.90;;;;;;4979096;28;20880;-70
2021/12/27 11:02:58;;;;;;;4.40;3.80;;;13.80;99.90;;;;;;4978922;28;20438;-70
2021/12/27 11:05:26;;;;;;;4.33;4.03;;;13.20;99.90;;;;;;4979790;28;20462;-70
2021/12/27 11:07:54;;;;;;;3.63;3.43;;;12.80;99.90;;;;;;4991531;28;20461;-70
2021/12/27 11:10:21;;;;;;;3.97;3.77;;;12.40;99.90;;;;;;4993422;28;20486;-71
2021/12/27 11:12:50;;;;;;;3.77;3.57;;;12.10;99.90;;;;;;4993560;28;20458;-70
2021/12/27 11:15:17;;;;;;;4.40;4.00;;;12.00;99.90;;;;;;4992728;28;20461;-71
2021/12/27 11:17:46;;;;;;;4.07;3.77;;;11.80;99.90;;;;;;4985642;28;20452;-70
2021/12/27 11:20:14;;;;;;;4.07;3.87;;;11.80;99.90;;;;;;4984491;28;20469;-69
2021/12/27 11:22:45;;;;;;;3.70;3.50;;;11.60;99.90;;;;;;4984196;28;20451;-69
2021/12/27 11:25:28;;;;;;;4.00;3.70;;;11.60;99.90;;;;;;4979239;28;20437;-71
2021/12/27 11:27:56;;;;;;;4.50;4.20;;;11.70;99.90;;;;;;4979353;28;20438;-71
2021/12/27 11:30:25;;;;;;;3.60;3.33;;;11.70;99.90;;;;;;4978858;28;20467;-71
2021/12/27 11:33:08;;;;;;;4.23;3.90;;;11.70;99.90;;;;;;4978042;28;20455;-70
2021/12/27 11:35:38;;;;;;;4.40;4.10;;;11.70;99.90;;;;;;4979044;28;20466;-69
2021/12/27 11:38:06;;;;;;;4.43;4.03;;;11.60;99.90;;;;;;4978249;28;20440;-70
2021/12/27 11:40:45;;;;;;;4.10;3.87;;;11.40;99.90;;;;;;4978019;28;20824;-70
2021/12/27 11:43:12;;;;;;;4.10;3.80;;;11.20;99.90;;;;;;4978355;28;20998;-71
2021/12/27 11:45:42;;;;;;;4.10;3.90;;;11.10;99.90;;;;;;4978862;28;20451;-70
2021/12/27 11:48:12;;;;;;;5.23;4.53;;;11.00;99.90;;;;;;4978518;28;20455;-70
2021/12/27 11:51:02;;;;;;;5.03;4.70;;;10.90;99.90;;;;;;4978612;28;20483;-71
2021/12/27 11:53:31;;;;;;;4.17;3.87;;;10.80;99.90;;;;;;4977510;28;20945;-70
2021/12/27 11:55:59;;;;;;;4.10;3.80;;;10.80;99.90;;;;;;4977649;28;20453;-71
2021/12/27 11:58:35;;;;;;;3.93;3.60;;;10.80;99.90;;;;;;4978214;28;20464;-71
2021/12/27 12:01:03;;;;;;;3.63;3.43;;;10.70;99.90;;;;;;4978223;28;20543;-70
2021/12/27 12:03:44;;;;;;;4.47;4.17;;;10.60;99.90;;;;;;4978006;28;20464;-71
2021/12/27 12:06:41;;;;;;;4.30;4.00;;;10.60;99.90;;;;;;4977414;28;20444;-71
2021/12/27 12:09:15;;;;;;;4.00;3.70;;;10.60;99.90;;;;;;4977233;28;20442;-71
2021/12/27 12:11:43;;;;;;;3.93;3.63;;;10.50;99.90;;;;;;4977450;28;20488;-72
2021/12/27 12:14:31;;;;;;;4.70;4.30;;;10.60;99.90;;;;;;4977630;28;20466;-72
2021/12/27 12:17:00;;;;;;;4.20;3.90;;;10.60;99.90;;;;;;4977940;28;20457;-71
2021/12/27 12:19:43;;;;;;;4.50;4.20;;;10.60;99.90;;;;;;4978036;28;20446;-72
2021/12/27 12:22:33;;;;;;;4.50;4.10;;;10.60;99.90;;;;;;4977971;28;20475;-72
2021/12/27 12:25:14;;;;;;;4.57;4.17;;;10.60;99.90;;;;;;4977832;28;20437;-71
2021/12/27 12:27:52;;;;;;;4.40;4.10;;;10.60;99.90;;;;;;4977724;28;20920;-72
2021/12/27 12:30:22;;;;;;;3.90;3.60;;;10.60;99.90;;;;;;4977534;28;20459;-71
2021/12/27 12:32:58;;;;;;;4.10;3.80;;;10.60;99.90;;;;;;4977988;28;20840;-73
2021/12/27 12:35:34;;;;;;;4.13;3.90;;;10.60;99.90;;;;;;4977415;28;20576;-72
2021/12/27 12:38:16;;;;;;;4.23;3.93;;;10.50;99.90;;;;;;4977665;28;20461;-72
2021/12/27 12:40:45;;;;;;;4.60;4.30;;;10.50;99.90;;;;;;4977608;28;20482;-71
2021/12/27 12:43:12;;;;;;;4.80;4.30;;;10.50;99.90;;;;;;4977823;28;20465;-73
2021/12/27 12:45:39;;;;;;;5.30;4.80;;;10.60;99.90;;;;;;4977418;28;20458;-72
2021/12/27 12:48:07;;;;;;;4.50;4.20;;;10.80;99.90;;;;;;4978740;28;20457;-75
2021/12/27 12:50:36;;;;;;;5.00;4.57;;;10.80;99.90;;;;;;4981533;28;20463;-70
2021/12/27 12:53:05;;;;;;;4.83;4.43;;;10.90;99.90;;;;;;4987302;28;20782;-71
2021/12/27 12:55:34;;;;;;;5.77;5.27;;;10.90;99.90;;;;;;4978312;28;20498;-72
2021/12/27 12:58:01;;;;;;;5.50;5.07;;;10.90;99.90;;;;;;4977731;28;20932;-71
2021/12/27 13:00:30;;;;;;;4.87;4.47;;;11.00;99.90;;;;;;4976793;28;20576;-71
2021/12/27 13:03:08;;;;;;;5.03;4.73;;;11.00;99.90;;;;;;4977133;28;20434;-71
2021/12/27 13:05:36;;;;;;;4.90;4.50;;;11.00;99.90;;;;;;4977163;28;20453;-70
2021/12/27 13:08:03;;;;;;;5.47;4.83;;;11.10;99.90;;;;;;4978313;28;20458;-71
2021/12/27 13:10:33;;;;;;;5.10;4.70;;;11.10;99.90;;;;;;4977604;28;20841;-73
2021/12/27 13:13:01;;;;;;;4.53;4.20;;;11.00;99.90;;;;;;4977359;28;20491;-71
2021/12/27 13:15:30;;;;;;;4.60;4.20;;;10.90;99.90;;;;;;4977384;28;20458;-71
2021/12/27 13:18:04;;;;;;;4.70;4.33;;;10.80;99.90;;;;;;4977244;28;20537;-72
2021/12/27 13:20:32;;;;;;;4.63;4.23;;;10.90;99.90;;;;;;4977404;28;20442;-72
2021/12/27 13:23:03;;;;;;;4.67;4.27;;;10.70;99.90;;;;;;4977503;28;20488;-71
2021/12/27 13:25:37;;;;;;;4.63;4.30;;;10.70;99.90;;;;;;4976965;28;20441;-72
2021/12/27 13:28:12;;;;;;;4.10;3.70;;;10.80;99.90;;;;;;4977757;28;20447;-69
2021/12/27 13:30:49;;;;;;;4.80;4.47;;;10.70;99.90;;;;;;4976900;28;20479;-71
2021/12/27 13:33:16;;;;;;;4.73;4.33;;;10.60;99.90;;;;;;4981362;28;20449;-70
2021/12/27 13:35:44;;;;;;;4.70;4.40;;;10.60;99.90;;;;;;4993071;28;20453;-70
2021/12/27 13:38:17;;;;;;;5.10;4.70;;;10.60;99.90;;;;;;4991737;28;20525;-70
2021/12/27 13:40:49;;;;;;;5.17;4.77;;;10.60;99.90;;;;;;4992241;28;20482;-72
2021/12/27 13:43:17;;;;;;;4.90;4.40;;;10.60;99.90;;;;;;4987453;28;20468;-72
2021/12/27 13:45:45;;;;;;;5.00;4.60;;;10.60;99.90;;;;;;4977615;28;20446;-72
2021/12/27 13:48:13;;;;;;;4.87;4.57;;;10.60;99.90;;;;;;4978291;28;20440;-72
2021/12/27 13:50:44;;;;;;;5.27;4.87;;;10.60;99.90;;;;;;4977972;28;20476;-71
2021/12/27 13:53:17;;;;;;;4.67;4.37;;;10.60;99.90;;;;;;4976754;28;20476;-70
2021/12/27 13:55:45;;;;;;;5.20;4.80;;;10.50;99.90;;;;;;4977030;28;20441;-71
2021/12/27 13:58:18;;;;;;;4.30;4.00;;;10.50;99.90;;;;;;4976393;28;20462;-70
2021/12/27 14:00:47;;;;;;;5.10;4.70;;;10.50;99.90;;;;;;4976307;28;21013;-70
2021/12/27 14:03:33;;;;;;;5.10;4.70;;;10.40;99.90;;;;;;4976476;28;20488;-69
2021/12/27 14:06:04;;;;;;;4.53;4.23;;;10.40;99.90;;;;;;4976502;28;20803;-70
2021/12/27 14:08:33;;;;;;;4.57;4.27;;;10.40;99.90;;;;;;4976796;28;20446;-70
2021/12/27 14:11:19;;;;;;;4.47;4.17;;;10.50;99.90;;;;;;4976659;28;20483;-69
2021/12/27 14:13:55;;;;;;;5.80;5.30;;;10.40;99.90;;;;;;4977762;28;20439;-68
2021/12/27 14:16:28;;;;;;;4.90;4.60;;;10.40;99.90;;;;;;4979509;28;20444;-69
2021/12/27 14:19:13;;;;;;;4.80;4.50;;;10.40;99.90;;;;;;4977808;28;20439;-69
2021/12/27 14:22:07;;;;;;;5.90;5.40;;;10.50;99.90;;;;;;4981515;28;20473;-69
2021/12/27 14:24:40;;;;;;;5.33;4.93;;;10.50;99.90;;;;;;4980718;28;20435;-69
2021/12/27 14:27:15;;;;;;;7.90;4.87;;;10.40;99.90;;;;;;4976593;28;20450;-70
2021/12/27 14:29:42;;;;;;;5.10;4.70;;;10.40;99.90;;;;;;4976365;28;20956;-69
2021/12/27 14:32:09;;;;;;;5.70;5.20;;;10.30;99.90;;;;;;4978785;28;20488;-69
2021/12/27 14:34:41;;;;;;;5.63;5.13;;;10.30;99.90;;;;;;4980714;28;20940;-69
2021/12/27 14:37:11;;;;;;;5.00;4.50;;;10.30;99.90;;;;;;4980272;28;20460;-70
2021/12/27 14:39:39;;;;;;;5.27;4.87;;;10.20;99.90;;;;;;4979882;28;20535;-71
2021/12/27 14:42:07;;;;;;;5.00;4.70;;;10.20;99.90;;;;;;4979521;28;20473;-69
2021/12/27 14:44:42;;;;;;;4.87;4.47;;;10.20;99.90;;;;;;4979721;28;21112;-69
2021/12/27 14:47:09;;;;;;;5.10;4.80;;;10.20;99.90;;;;;;4980721;28;21013;-69
2021/12/27 14:49:36;;;;;;;5.73;5.33;;;10.20;99.90;;;;;;4982619;28;20548;-70
2021/12/27 14:52:04;;;;;;;5.47;5.07;;;10.20;99.90;;;;;;4981962;28;20569;-70
2021/12/27 14:54:30;;;;;;;10.60;5.00;;;10.20;99.90;;;;;;4982062;28;20461;-70
2021/12/27 14:56:59;;;;;;;5.50;5.10;;;10.20;99.90;;;;;;4980992;28;20451;-71
2021/12/27 14:59:26;;;;;;;5.90;5.37;;;10.20;99.90;;;;;;4980458;28;20465;-70
2021/12/27 15:01:52;;;;;;;6.20;5.60;;;10.20;99.90;;;;;;4978951;28;20478;-69
2021/12/27 15:04:19;;;;;;;6.30;5.77;;;10.10;99.90;;;;;;4981317;28;20464;-69
2021/12/27 15:06:46;;;;;;;5.90;5.30;;;10.10;99.90;;;;;;4980206;28;20463;-69
2021/12/27 15:09:13;;;;;;;5.40;5.00;;;10.10;99.90;;;;;;4980432;28;20468;-69
2021/12/27 15:11:40;;;;;;;6.13;5.50;;;10.10;99.90;;;;;;4980056;28;20472;-70
2021/12/27 15:14:08;;;;;;;5.50;5.00;;;10.10;99.90;;;;;;4979472;28;20849;-69
2021/12/27 15:16:35;;;;;;;5.93;5.40;;;10.10;99.90;;;;;;4979802;28;20451;-69
2021/12/27 15:19:02;;;;;;;6.23;5.73;;;10.10;99.90;;;;;;4980660;28;20451;-69
2021/12/27 15:21:29;;;;;;;7.03;6.43;;;10.10;99.90;;;;;;4981376;28;20519;-70
2021/12/27 15:23:56;;;;;;;7.53;6.83;;;10.10;99.90;;;;;;4979938;28;20457;-70
2021/12/27 15:26:22;;;;;;;7.73;7.07;;;10.10;99.90;;;;;;4978925;28;20468;-70
2021/12/27 15:28:49;;;;;;;7.80;6.80;;;10.00;99.90;;;;;;4979049;28;20456;-70
2021/12/27 15:31:17;;;;;;;8.20;6.67;;;10.00;99.90;;;;;;4978753;28;20828;-69
2021/12/27 15:33:44;;;;;;;7.00;6.30;;;10.00;99.90;;;;;;4978384;28;20481;-70
2021/12/27 15:36:11;;;;;;;6.53;5.80;;;10.00;99.90;;;;;;4979567;28;20461;-70
2021/12/27 15:38:38;;;;;;;7.83;6.53;;;10.00;99.90;;;;;;4978442;28;20471;-70
2021/12/27 15:41:05;;;;;;;6.20;5.60;;;10.00;99.90;;;;;;4978245;28;20480;-70
2021/12/27 15:43:33;;;;;;;6.70;6.10;;;9.90;99.90;;;;;;4977649;28;20452;-70
2021/12/27 15:46:01;;;;;;;6.23;5.73;;;9.90;99.90;;;;;;4978834;28;20457;-70
2021/12/27 15:48:30;;;;;;;6.40;5.80;;;9.90;99.90;;;;;;4977990;28;20490;-69
2021/12/27 15:50:59;;;;;;;6.23;5.73;;;10.00;99.90;;;;;;4979128;28;20566;-70
2021/12/27 15:53:26;;;;;;;6.87;6.27;;;9.90;99.90;;;;;;4979938;28;20624;-69
2021/12/27 15:55:54;;;;;;;7.10;6.40;;;9.90;99.90;;;;;;4990349;28;20442;-70
2021/12/27 15:58:21;;;;;;;6.00;5.60;;;10.00;99.90;;;;;;4985353;28;20826;-70
2021/12/27 16:00:48;;;;;;;6.37;5.87;;;9.90;99.90;;;;;;4978089;28;20487;-70
2021/12/27 16:03:15;;;;;;;6.47;5.97;;;9.90;99.90;;;;;;4978260;28;20912;-70
2021/12/27 16:05:43;;;;;;;6.77;6.20;;;9.90;99.90;;;;;;4978541;28;20479;-69
2021/12/27 16:08:11;;;;;;;6.50;5.90;;;9.90;99.90;;;;;;4979670;28;20524;-70
2021/12/27 16:10:38;;;;;;;6.80;6.27;;;9.90;99.90;;;;;;4978920;28;20481;-69
2021/12/27 16:13:05;;;;;;;6.20;5.70;;;9.80;99.90;;;;;;4978644;28;20485;-70
2021/12/27 16:15:31;;;;;;;6.97;6.27;;;9.80;99.90;;;;;;4978352;28;20466;-70
2021/12/27 16:17:59;;;;;;;6.33;5.73;;;9.80;99.90;;;;;;4978033;28;20455;-70
2021/12/27 16:20:26;;;;;;;6.33;5.83;;;9.80;99.90;;;;;;4978012;28;20564;-70
2021/12/27 16:22:55;;;;;;;7.60;6.97;;;9.80;99.90;;;;;;4977946;28;20461;-70
2021/12/27 16:25:22;;;;;;;7.07;6.47;;;9.80;99.90;;;;;;4977951;28;20455;-70
2021/12/27 16:27:49;;;;;;;7.83;7.13;;;9.80;99.90;;;;;;4977409;28;20828;-70
2021/12/27 16:30:17;;;;;;;11.20;7.40;;;9.70;99.90;;;;;;4977327;28;20543;-70
2021/12/27 16:32:45;;;;;;;7.30;6.63;;;9.70;99.90;;;;;;4977435;28;20485;-70
2021/12/27 16:35:12;;;;;;;7.40;6.70;;;9.70;99.90;;;;;;4977269;28;20443;-69
2021/12/27 16:37:39;;;;;;;8.10;6.90;;;9.70;99.90;;;;;;4977205;28;20456;-70
2021/12/27 16:40:14;;;;;;;8.40;7.70;;;9.60;99.90;;;;;;4977716;28;21065;-70
2021/12/27 16:42:42;;;;;;;9.13;8.20;;;9.70;99.90;;;;;;4976583;28;20527;-69
2021/12/27 16:45:10;;;;;;;9.13;8.30;;;9.60;99.90;;;;;;4976821;28;20451;-70
2021/12/27 16:47:39;;;;;;;11.90;7.73;;;9.50;99.90;;;;;;4977546;28;20568;-69
2021/12/27 16:50:09;;;;;;;11.30;8.27;;;9.50;99.90;;;;;;4976811;28;20455;-70
2021/12/27 16:52:35;;;;;;;10.90;9.03;;;9.50;99.90;;;;;;4976673;28;20484;-70
2021/12/27 16:55:02;;;;;;;9.13;8.23;;;9.40;99.90;;;;;;4976846;28;20466;-70
2021/12/27 16:57:31;;;;;;;9.73;8.93;;;9.40;99.90;;;;;;4976636;28;20464;-72
2021/12/27 16:59:57;;;;;;;9.60;8.80;;;9.30;99.90;;;;;;4976693;28;20487;-71
2021/12/27 17:02:24;;;;;;;12.73;9.00;;;9.30;99.90;;;;;;4976122;28;20858;-73
2021/12/27 17:04:51;;;;;;;8.07;7.40;;;9.20;99.90;;;;;;4976833;28;20454;-73
2021/12/27 17:07:17;;;;;;;9.03;8.33;;;9.20;99.90;;;;;;4976851;28;20467;-71
2021/12/27 17:09:44;;;;;;;8.47;7.67;;;9.20;99.90;;;;;;4977058;28;20467;-73
2021/12/27 17:12:12;;;;;;;9.23;8.13;;;9.10;99.90;;;;;;4976871;28;20483;-71
2021/12/27 17:14:42;;;;;;;12.20;8.40;;;9.10;99.90;;;;;;4976513;28;20487;-76
2021/12/27 17:17:09;;;;;;;9.93;9.03;;;9.10;99.90;;;;;;4976874;28;20842;-73
2021/12/27 17:19:36;;;;;;;9.40;8.50;;;9.00;99.90;;;;;;4977150;28;20457;-72
2021/12/27 17:22:05;;;;;;;10.50;9.40;;;9.00;99.90;;;;;;4976612;28;20479;-76
2021/12/27 17:24:31;;;;;;;9.67;8.77;;;9.00;99.90;;;;;;4978401;28;20439;-72
2021/12/27 17:26:58;;;;;;;9.73;8.90;;;9.00;99.90;;;;;;4978050;28;20446;-74
2021/12/27 17:29:25;;;;;;;11.23;10.20;;;9.00;99.90;;;;;;4985128;28;20458;-75
2021/12/27 17:31:54;;;;;;;12.37;11.00;;;8.90;99.90;;;;;;4981940;28;20468;-74
2021/12/27 17:34:21;;;;;;;11.10;10.17;;;8.90;99.90;;;;;;4977263;28;20467;-74
2021/12/27 17:36:49;;;;;;;11.17;10.17;;;8.90;99.90;;;;;;4980631;28;20466;-73
2021/12/27 17:39:18;;;;;;;11.50;10.50;;;8.80;99.90;;;;;;4978938;28;20785;-74
2021/12/27 17:41:45;;;;;;;10.77;9.87;;;8.80;99.90;;;;;;4979716;28;20557;-70
2021/12/27 17:44:12;;;;;;;10.77;9.23;;;8.70;99.90;;;;;;4977196;28;20474;-70
2021/12/27 17:46:41;;;;;;;10.73;9.73;;;8.70;99.90;;;;;;4978089;28;20447;-71
2021/12/27 17:49:09;;;;;;;10.77;9.77;;;8.70;99.90;;;;;;4977241;28;20509;-72
2021/12/27 17:51:36;;;;;;;9.77;8.90;;;8.70;99.90;;;;;;4975919;28;20937;-72
2021/12/27 17:54:04;;;;;;;9.90;8.97;;;8.80;99.90;;;;;;4976566;28;20486;-70
2021/12/27 17:56:31;;;;;;;8.97;8.07;;;8.70;99.90;;;;;;4976256;28;20445;-73
2021/12/27 17:58:58;;;;;;;8.63;7.93;;;8.70;99.90;;;;;;4976423;28;20466;-73